LFRD/DNR METAR and TAF weather

Enter ICAO airport designator
Station Type Date Time Source
LFRD METAR 2019/10/21 05:30 UTC NOAA

LFRD 210530Z AUTO 22004KT 5000 BR FEW022 08/08 Q1016 TEMPO SHRA BKN015TCU


Station Type Date Time Source
LFRD Decoded METAR 2019/10/21 05:30 UTC NOAA

Dinard, France (LFRD) 48-35N 002-04W 60M
Oct 21, 2019 - 01:30 AM EDT / 2019.10.21 0530 UTC
Wind: from the SW (220 degrees) at 5 MPH (4 KT):0
Visibility: 3 mile(s):0
Sky conditions: mostly clear
Weather: mist; Towering cumulus clouds observed
Temperature: 46 F (8 C)
Dew Point: 46 F (8 C)
Relative Humidity: 100%
Pressure (altimeter): 30.00 in. Hg (1016 hPa)
ob: LFRD 210530Z AUTO 22004KT 5000 BR FEW022 08/08 Q1016 TEMPO SHRA BKN015TCU
cycle: 5

Station Type Date Time Source
LFRD TAF 2019/10/21 06:21 UTC NOAA

TAF LFRD 210500Z 2106/2206 VRB04KT 9999 BKN030 PROB40
TEMPO 2106/2120 3000 SHRA BKN015TCU
BECMG 2120/2122 3000 BR
TEMPO 2122/2124 0500 FG
BECMG 2200/2202 0300 FG VV///

Example: see airport list